createdAt,value
2022-11-27T00:03:06.000Z,101294.28
2022-11-27T00:08:08.994Z,101288.31
2022-11-27T00:13:11.846Z,101286.78
2022-11-27T00:18:14.687Z,101285.84
2022-11-27T00:23:17.578Z,101285.84
2022-11-27T00:28:21.019Z,101289.41
2022-11-27T00:33:23.971Z,101288.69
2022-11-27T00:38:26.872Z,101301.81
2022-11-27T00:43:29.728Z,101292.25
2022-11-27T00:48:33.151Z,101301.03
2022-11-27T00:53:36.161Z,101293.16
2022-11-27T00:58:39.059Z,101306.41
2022-11-27T01:03:41.937Z,101304.53
2022-11-27T01:08:45.320Z,101308.06
2022-11-27T01:13:49.165Z,101302.75
2022-11-27T01:18:56.268Z,101289.63
2022-11-27T01:24:00.611Z,101303.78
2022-11-27T01:29:04.072Z,101311.66
2022-11-27T01:34:12.934Z,101315.31
2022-11-27T01:39:21.578Z,101318.03
2022-11-27T01:44:24.410Z,101314.53
2022-11-27T01:49:40.725Z,101316.44
2022-11-27T01:55:18.954Z,101312.13
2022-11-27T02:00:22.983Z,101312.22
2022-11-27T02:05:28.686Z,101313.31
2022-11-27T02:11:13.263Z,101324.69
2022-11-27T02:16:53.856Z,101321.94
2022-11-27T02:22:15.066Z,101307.03
2022-11-27T02:27:42.122Z,101310.44
2022-11-27T02:33:00.116Z,101309.50
2022-11-27T02:38:17.413Z,101316.63
2022-11-27T02:43:37.906Z,101326.56
2022-11-27T02:48:54.852Z,101325.78
2022-11-27T02:54:03.265Z,101324.03
2022-11-27T02:59:12.725Z,101324.88
2022-11-27T03:04:23.532Z,101330.13
2022-11-27T03:09:39.429Z,101329.19
2022-11-27T03:14:43.557Z,101332.44
2022-11-27T03:19:53.178Z,101336.59
2022-11-27T03:24:56.117Z,101338.97
2022-11-27T03:30:03.923Z,101339.44
2022-11-27T03:35:11.362Z,101339.06
2022-11-27T03:40:15.905Z,101337.75
2022-11-27T03:45:59.088Z,101345.16
2022-11-27T03:51:15.348Z,101347.41
2022-11-27T03:56:37.132Z,101341.97
2022-11-27T04:01:40.968Z,101336.63
2022-11-27T04:06:43.874Z,101339.13
2022-11-27T04:11:46.897Z,101337.28
2022-11-27T04:16:49.836Z,101343.09
2022-11-27T04:21:52.721Z,101349.09
2022-11-27T04:26:55.695Z,101340.28
2022-11-27T04:31:58.605Z,101340.00
2022-11-27T04:37:01.466Z,101339.03
2022-11-27T04:42:04.545Z,101338.94
2022-11-27T04:47:07.479Z,101333.69
2022-11-27T04:52:11.101Z,101326.75
2022-11-27T04:57:14.097Z,101331.81
2022-11-27T05:02:17.256Z,101320.16
2022-11-27T05:07:20.198Z,101320.72
2022-11-27T05:12:23.286Z,101325.81
2022-11-27T05:17:26.262Z,101327.38
2022-11-27T05:22:29.031Z,101329.00
2022-11-27T05:27:31.984Z,101327.84
2022-11-27T05:32:35.351Z,101325.19
2022-11-27T05:37:38.147Z,101325.03
2022-11-27T05:42:41.020Z,101331.97
2022-11-27T05:47:43.919Z,101327.53
2022-11-27T05:52:46.879Z,101328.38
2022-11-27T05:57:49.789Z,101323.13
2022-11-27T06:02:53.249Z,101324.06
2022-11-27T06:07:56.186Z,101338.25
2022-11-27T06:12:59.304Z,101334.78
2022-11-27T06:18:02.331Z,101331.31
2022-11-27T06:23:05.280Z,101338.34
2022-11-27T06:28:07.964Z,101339.19
2022-11-27T06:33:10.829Z,101345.28
2022-11-27T06:38:13.683Z,101343.44
2022-11-27T06:43:16.559Z,101352.78
2022-11-27T06:48:19.557Z,101356.28
2022-11-27T06:53:22.446Z,101357.88
2022-11-27T06:58:29.511Z,101363.88
2022-11-27T07:03:34.246Z,101363.69
2022-11-27T07:08:37.775Z,101344.22
2022-11-27T07:13:41.286Z,101351.09
2022-11-27T07:18:48.099Z,101354.34
2022-11-27T07:23:51.332Z,101349.94
2022-11-27T07:28:55.520Z,101355.00
2022-11-27T07:33:59.195Z,101366.81
2022-11-27T07:39:02.057Z,101371.03
2022-11-27T07:44:05.077Z,101365.78
2022-11-27T07:49:07.884Z,101368.41
2022-11-27T07:54:10.822Z,101374.44
2022-11-27T07:59:13.750Z,101365.50
2022-11-27T08:04:16.996Z,101366.16
2022-11-27T08:09:20.145Z,101362.91
2022-11-27T08:14:23.043Z,101355.66
2022-11-27T08:19:26.151Z,101356.00
2022-11-27T08:24:29.212Z,101355.91
2022-11-27T08:29:34.039Z,101371.31
2022-11-27T08:34:37.860Z,101380.47
2022-11-27T08:39:40.803Z,101381.94
2022-11-27T08:44:44.401Z,101385.97
2022-11-27T08:49:47.552Z,101378.59
2022-11-27T08:54:56.072Z,101388.53
2022-11-27T09:00:00.646Z,101396.78
2022-11-27T09:05:06.249Z,101394.44
2022-11-27T09:10:10.228Z,101396.78
2022-11-27T09:15:14.136Z,101402.69
2022-11-27T09:20:17.110Z,101397.97
2022-11-27T09:25:19.920Z,101400.06
2022-11-27T09:30:22.908Z,101394.38
2022-11-27T09:35:26.534Z,101391.31
2022-11-27T09:40:29.354Z,101377.41
2022-11-27T09:45:33.331Z,101383.72
2022-11-27T09:50:42.555Z,101376.53
2022-11-27T09:55:50.103Z,101383.31
2022-11-27T10:00:53.157Z,101384.44
2022-11-27T10:06:30.150Z,101381.28
2022-11-27T10:11:58.914Z,101379.72
2022-11-27T10:18:12.340Z,101374.56
2022-11-27T10:23:57.015Z,101364.31
2022-11-27T10:29:30.663Z,101367.06
2022-11-27T10:34:56.394Z,101360.09
2022-11-27T10:40:15.889Z,101356.72
2022-11-27T10:45:48.911Z,101355.75
2022-11-27T10:50:52.136Z,101349.34
2022-11-27T10:56:15.196Z,101344.06
2022-11-27T11:01:21.257Z,101336.72
2022-11-27T11:06:27.164Z,101329.53
2022-11-27T11:11:30.454Z,101330.28
2022-11-27T11:16:44.249Z,101321.63
2022-11-27T11:21:47.213Z,101313.84
2022-11-27T11:27:30.081Z,101313.72
2022-11-27T11:32:40.559Z,101315.41
2022-11-27T11:37:46.688Z,101292.44
2022-11-27T11:43:27.747Z,101286.94
2022-11-27T11:48:30.433Z,101284.00
2022-11-27T11:53:41.116Z,101277.91
2022-11-27T11:58:54.995Z,101268.19
2022-11-27T12:04:48.761Z,101263.13
2022-11-27T12:10:15.949Z,101254.44
2022-11-27T12:15:47.161Z,101262.34
2022-11-27T12:20:58.000Z,101254.84
2022-11-27T12:26:09.958Z,101254.59
2022-11-27T12:31:39.565Z,101254.41
2022-11-27T12:37:27.018Z,101255.25
2022-11-27T12:42:51.676Z,101242.25
2022-11-27T12:48:12.421Z,101245.13
2022-11-27T12:53:36.295Z,101242.81
2022-11-27T12:58:48.597Z,101241.59
2022-11-27T13:04:14.190Z,101246.84
2022-11-27T13:09:52.091Z,101230.72
2022-11-27T13:15:06.951Z,101228.22
2022-11-27T13:20:20.801Z,101231.06
2022-11-27T13:25:24.699Z,101229.41
2022-11-27T13:30:34.805Z,101216.53
2022-11-27T13:35:43.401Z,101219.28
2022-11-27T13:40:55.013Z,101214.53
2022-11-27T13:46:10.049Z,101237.09
2022-11-27T13:51:31.510Z,101227.50
2022-11-27T13:56:35.030Z,101233.75
2022-11-27T14:01:39.177Z,101235.75
2022-11-27T14:06:43.452Z,101223.63
2022-11-27T14:11:48.183Z,101221.09
2022-11-27T14:17:04.358Z,101234.25
2022-11-27T14:23:11.254Z,101236.06
2022-11-27T14:28:26.375Z,101237.84
2022-11-27T14:33:47.381Z,101240.59
2022-11-27T14:38:58.949Z,101237.13
2022-11-27T14:44:03.999Z,101243.34
2022-11-27T14:49:18.279Z,101239.00
2022-11-27T14:54:30.648Z,101241.97
2022-11-27T14:59:33.619Z,101244.81
2022-11-27T15:04:44.263Z,101249.25
2022-11-27T15:09:56.190Z,101249.47
2022-11-27T15:15:15.718Z,101254.81
2022-11-27T15:20:34.930Z,101245.34
2022-11-27T15:25:46.023Z,101247.34
2022-11-27T15:30:49.155Z,101249.25
2022-11-27T15:35:54.028Z,101245.06
2022-11-27T15:41:01.042Z,101250.31
2022-11-27T15:46:08.433Z,101253.25
2022-11-27T15:51:11.507Z,101256.00
2022-11-27T15:56:16.085Z,101260.50
2022-11-27T16:01:18.969Z,101251.03
2022-11-27T16:06:24.664Z,101248.41
2022-11-27T16:11:31.247Z,101244.19
2022-11-27T16:16:35.431Z,101236.28
2022-11-27T16:21:38.726Z,101237.34
2022-11-27T16:26:43.124Z,101234.81
2022-11-27T16:31:46.188Z,101233.22
2022-11-27T16:36:49.087Z,101231.53
2022-11-27T16:41:52.063Z,101223.75
2022-11-27T16:46:54.941Z,101219.34
2022-11-27T16:51:57.885Z,101217.53
2022-11-27T16:57:00.835Z,101205.34
2022-11-27T17:02:05.034Z,101218.28
2022-11-27T17:07:08.403Z,101217.72
2022-11-27T17:12:11.205Z,101215.09
2022-11-27T17:17:14.150Z,101205.34
2022-11-27T17:22:17.126Z,101215.75
2022-11-27T17:27:20.048Z,101203.44
2022-11-27T17:32:24.555Z,101201.44
2022-11-27T17:37:27.475Z,101197.00
2022-11-27T17:42:30.860Z,101179.41
2022-11-27T17:47:34.239Z,101180.44
2022-11-27T17:52:37.309Z,101182.38
2022-11-27T17:57:40.264Z,101169.63
2022-11-27T18:02:43.240Z,101157.59
2022-11-27T18:07:46.247Z,101154.25
2022-11-27T18:12:49.400Z,101158.56
2022-11-27T18:17:52.263Z,101166.47
2022-11-27T18:22:55.214Z,101161.41
2022-11-27T18:27:58.736Z,101164.16
2022-11-27T18:33:03.491Z,101160.88
2022-11-27T18:38:06.338Z,101149.94
2022-11-27T18:43:10.896Z,101149.41
2022-11-27T18:48:13.836Z,101148.75
2022-11-27T18:53:16.769Z,101138.47
2022-11-27T18:58:19.704Z,101131.53
2022-11-27T19:03:22.581Z,101136.97
2022-11-27T19:08:25.580Z,101140.56
2022-11-27T19:13:29.274Z,101152.75
2022-11-27T19:18:32.197Z,101151.38
2022-11-27T19:23:39.090Z,101147.06
2022-11-27T19:28:43.502Z,101158.00
2022-11-27T19:33:55.582Z,101149.38
2022-11-27T19:39:02.381Z,101160.94
2022-11-27T19:44:06.717Z,101160.09
2022-11-27T19:49:17.584Z,101152.22
2022-11-27T19:54:21.844Z,101156.53
2022-11-27T19:59:26.252Z,101156.53
2022-11-27T20:04:29.121Z,101138.03
2022-11-27T20:09:32.024Z,101130.03
2022-11-27T20:14:34.913Z,101129.06
2022-11-27T20:19:37.164Z,101132.53
2022-11-27T20:24:58.103Z,101136.13
2022-11-27T20:30:08.778Z,101132.53
2022-11-27T20:35:11.829Z,101127.50
2022-11-27T20:40:14.952Z,101117.19
2022-11-27T20:45:20.570Z,101120.94
2022-11-27T20:50:24.222Z,101115.91
2022-11-27T20:55:27.540Z,101116.97
2022-11-27T21:00:31.167Z,101118.66
2022-11-27T21:05:34.440Z,101116.03
2022-11-27T21:10:37.577Z,101118.66
2022-11-27T21:15:46.866Z,101106.53
2022-11-27T21:20:49.738Z,101110.84
2022-11-27T21:25:52.545Z,101108.13
2022-11-27T21:30:55.156Z,101098.47
2022-11-27T21:35:58.072Z,101109.81
2022-11-27T21:41:00.950Z,101106.47
2022-11-27T21:46:19.473Z,101095.94
2022-11-27T21:51:23.126Z,101094.44
2022-11-27T21:56:28.924Z,101098.88
2022-11-27T22:01:31.916Z,101094.56
2022-11-27T22:06:41.492Z,101085.19
2022-11-27T22:11:46.487Z,101091.28
2022-11-27T22:16:49.506Z,101093.19
2022-11-27T22:21:52.537Z,101094.97
2022-11-27T22:26:55.400Z,101086.31
2022-11-27T22:31:58.351Z,101085.38
2022-11-27T22:37:03.690Z,101081.81
2022-11-27T22:42:06.602Z,101077.41
2022-11-27T22:47:09.564Z,101082.56
2022-11-27T22:52:13.069Z,101080.53
2022-11-27T22:57:16.116Z,101077.00
2022-11-27T23:02:19.029Z,101077.84
2022-11-27T23:07:25.168Z,101067.19
2022-11-27T23:12:28.376Z,101060.16
2022-11-27T23:17:31.251Z,101056.78
2022-11-27T23:22:34.057Z,101047.13
2022-11-27T23:27:36.935Z,101029.66
2022-11-27T23:32:39.765Z,101016.50
2022-11-27T23:37:43.555Z,101011.34
2022-11-27T23:42:46.447Z,101003.66
2022-11-27T23:47:50.513Z,101006.41
2022-11-27T23:52:55.056Z,101005.78
2022-11-27T23:57:57.879Z,101010.19
